Time;durP1;ratioP1;P1;durP2;ratioP2;P2;SDS_P1;SDS_P2;PMS_P1;PMS_P2;Temp;Humidity;BMP_temperature;BMP_pressure;BME280_temperature;BME280_humidity;BME280_pressure;Samples;Min_cycle;Max_cycle;Signal;HPM_P1;HPM_P2
2024/02/18 00:01:40;;;;;;;110.18;74.32;;;;;;;;;;6261696;28;24684;-81
2024/02/18 00:04:42;;;;;;;109.10;73.80;;;;;;;;;;6265388;28;24425;-80
2024/02/18 00:07:43;;;;;;;110.25;74.38;;;;;;;;;;6267916;28;24452;-81
2024/02/18 00:10:45;;;;;;;111.68;75.40;;;;;;;;;;6267057;28;25024;-81
2024/02/18 00:13:48;;;;;;;106.50;73.43;;;;;;;;;;6265359;28;24411;-81
2024/02/18 00:16:49;;;;;;;106.60;73.85;;;;;;;;;;6264634;28;24817;-81
2024/02/18 00:19:51;;;;;;;111.45;75.38;;;;;;;;;;6264979;28;24422;-81
2024/02/18 00:22:52;;;;;;;114.13;75.00;;;;;;;;;;6264502;28;24629;-82
2024/02/18 00:25:54;;;;;;;107.43;74.87;;;;;;;;;;6265084;28;24841;-82
2024/02/18 00:28:57;;;;;;;109.65;73.07;;;;;;;;;;6266989;28;25047;-82
2024/02/18 00:31:58;;;;;;;108.18;74.68;;;;;;;;;;6262863;28;24434;-81
2024/02/18 00:35:00;;;;;;;112.72;75.07;;;;;;;;;;6266405;28;24635;-82
2024/02/18 00:38:01;;;;;;;110.15;75.28;;;;;;;;;;6268181;28;24428;-82
2024/02/18 00:41:05;;;;;;;109.78;74.95;;;;;;;;;;6262998;28;24423;-82
2024/02/18 00:44:08;;;;;;;108.70;74.63;;;;;;;;;;6263472;28;24442;-82
2024/02/18 00:47:09;;;;;;;109.30;73.50;;;;;;;;;;6262047;28;24434;-82
2024/02/18 00:50:11;;;;;;;105.55;72.15;;;;;;;;;;6262417;28;24816;-81
2024/02/18 00:53:13;;;;;;;106.55;72.20;;;;;;;;;;6263888;28;25222;-82
2024/02/18 00:56:15;;;;;;;105.03;74.00;;;;;;;;;;6266846;28;24887;-82
2024/02/18 00:59:18;;;;;;;104.90;72.18;;;;;;;;;;6265389;28;24430;-81
2024/02/18 01:02:19;;;;;;;104.05;71.43;;;;;;;;;;6262942;28;24416;-81
2024/02/18 01:05:21;;;;;;;105.30;71.57;;;;;;;;;;6263370;28;24513;-82
2024/02/18 01:08:22;;;;;;;107.63;71.97;;;;;;;;;;6264590;28;24822;-82
2024/02/18 01:11:24;;;;;;;105.68;71.13;;;;;;;;;;6262104;28;24422;-80
2024/02/18 01:14:26;;;;;;;107.97;72.22;;;;;;;;;;6264794;28;24498;-80
2024/02/18 01:17:28;;;;;;;105.75;73.13;;;;;;;;;;6263870;28;24419;-81
2024/02/18 01:20:29;;;;;;;105.55;73.00;;;;;;;;;;6262203;28;24434;-81
2024/02/18 01:23:31;;;;;;;104.53;72.43;;;;;;;;;;6269424;28;24429;-83
2024/02/18 01:26:32;;;;;;;105.97;73.63;;;;;;;;;;6270809;28;24415;-82
2024/02/18 01:29:38;;;;;;;108.97;73.75;;;;;;;;;;6268414;28;24612;-81
2024/02/18 01:32:40;;;;;;;110.90;75.65;;;;;;;;;;6267400;28;24876;-81
2024/02/18 01:35:41;;;;;;;110.78;75.47;;;;;;;;;;6270926;28;24440;-81
2024/02/18 01:38:42;;;;;;;108.40;73.23;;;;;;;;;;6272183;28;24527;-81
2024/02/18 01:41:44;;;;;;;110.30;73.25;;;;;;;;;;6268735;28;24514;-82
2024/02/18 01:44:47;;;;;;;109.18;73.15;;;;;;;;;;6271949;28;25047;-81
2024/02/18 01:47:48;;;;;;;109.03;74.18;;;;;;;;;;6266933;28;24640;-80
2024/02/18 01:50:50;;;;;;;105.70;72.40;;;;;;;;;;6269829;28;24589;-83
2024/02/18 01:53:51;;;;;;;113.75;75.63;;;;;;;;;;6267891;28;24430;-80
2024/02/18 01:56:53;;;;;;;114.55;75.72;;;;;;;;;;6269166;28;24635;-82
2024/02/18 01:59:56;;;;;;;113.75;76.43;;;;;;;;;;6266977;28;24454;-82
2024/02/18 02:02:58;;;;;;;113.45;77.15;;;;;;;;;;6264168;28;24612;-83
2024/02/18 02:06:01;;;;;;;112.47;75.95;;;;;;;;;;6268931;28;25123;-81
2024/02/18 02:09:03;;;;;;;112.70;76.97;;;;;;;;;;6268215;28;24416;-82
2024/02/18 02:12:05;;;;;;;113.25;75.75;;;;;;;;;;6270154;28;24502;-81
2024/02/18 02:15:09;;;;;;;109.33;74.30;;;;;;;;;;6265065;28;25156;-83
2024/02/18 02:18:10;;;;;;;110.78;75.72;;;;;;;;;;6267150;28;24499;-81
2024/02/18 02:21:11;;;;;;;106.73;73.13;;;;;;;;;;6267374;28;24632;-81
2024/02/18 02:24:13;;;;;;;109.18;73.38;;;;;;;;;;6266257;28;24944;-82
2024/02/18 02:27:17;;;;;;;104.00;71.10;;;;;;;;;;6268263;28;24445;-81
2024/02/18 02:30:20;;;;;;;103.18;71.68;;;;;;;;;;6268118;28;24430;-82
2024/02/18 02:33:23;;;;;;;107.22;73.03;;;;;;;;;;6267069;28;24422;-81
2024/02/18 02:36:24;;;;;;;106.47;72.93;;;;;;;;;;6269186;28;24457;-82
2024/02/18 02:39:26;;;;;;;104.00;70.20;;;;;;;;;;6269724;28;24435;-81
2024/02/18 02:42:27;;;;;;;105.40;70.07;;;;;;;;;;6268787;28;24413;-80
2024/02/18 02:45:31;;;;;;;102.77;70.57;;;;;;;;;;6267519;28;24423;-80
2024/02/18 02:48:32;;;;;;;101.10;69.47;;;;;;;;;;6267557;28;24450;-81
2024/02/18 02:51:33;;;;;;;99.65;67.78;;;;;;;;;;6265514;28;24424;-81
2024/02/18 02:54:35;;;;;;;100.43;68.45;;;;;;;;;;6266678;28;24627;-81
2024/02/18 02:57:37;;;;;;;98.85;68.25;;;;;;;;;;6267052;28;24423;-81
2024/02/18 03:00:39;;;;;;;101.68;68.88;;;;;;;;;;6267845;28;24439;-81
2024/02/18 03:03:41;;;;;;;101.80;68.68;;;;;;;;;;6264429;28;24432;-81
2024/02/18 03:06:43;;;;;;;103.37;69.13;;;;;;;;;;6265880;28;24503;-83
2024/02/18 03:09:44;;;;;;;103.95;69.32;;;;;;;;;;6264183;28;24419;-81
2024/02/18 03:12:46;;;;;;;101.55;69.13;;;;;;;;;;6266465;28;24802;-83
2024/02/18 03:15:48;;;;;;;104.85;69.03;;;;;;;;;;6266330;28;24641;-83
2024/02/18 03:18:50;;;;;;;103.43;69.93;;;;;;;;;;6266507;28;24614;-80
2024/02/18 03:21:51;;;;;;;106.43;70.85;;;;;;;;;;6265642;28;24849;-81
2024/02/18 03:24:53;;;;;;;102.97;69.78;;;;;;;;;;6268708;28;24422;-81
2024/02/18 03:27:54;;;;;;;105.78;71.20;;;;;;;;;;6266670;28;24465;-82
2024/02/18 03:30:57;;;;;;;104.82;70.43;;;;;;;;;;6267954;28;24825;-82
2024/02/18 03:33:59;;;;;;;108.38;72.00;;;;;;;;;;6264509;28;24884;-81
2024/02/18 03:37:00;;;;;;;103.90;69.47;;;;;;;;;;6268164;28;24442;-81
2024/02/18 03:40:04;;;;;;;103.00;71.93;;;;;;;;;;6265479;28;24451;-81
2024/02/18 03:43:06;;;;;;;102.97;70.85;;;;;;;;;;6265123;28;24424;-82
2024/02/18 03:46:09;;;;;;;104.55;73.00;;;;;;;;;;6266886;28;24420;-82
2024/02/18 03:49:10;;;;;;;113.40;73.10;;;;;;;;;;6264828;28;24419;-82
2024/02/18 03:52:12;;;;;;;104.57;71.00;;;;;;;;;;6269340;28;24427;-82
2024/02/18 03:55:14;;;;;;;106.47;73.65;;;;;;;;;;6262920;28;24616;-81
2024/02/18 03:58:16;;;;;;;108.05;72.80;;;;;;;;;;6268990;28;24443;-81
2024/02/18 04:01:18;;;;;;;110.22;73.68;;;;;;;;;;6266341;28;24427;-83
2024/02/18 04:04:20;;;;;;;110.43;75.70;;;;;;;;;;6265127;28;24954;-81
2024/02/18 04:07:22;;;;;;;111.20;75.25;;;;;;;;;;6267081;28;24415;-81
2024/02/18 04:10:25;;;;;;;107.13;73.55;;;;;;;;;;6265489;28;24411;-81
2024/02/18 04:13:27;;;;;;;112.07;74.18;;;;;;;;;;6266409;28;24450;-81
2024/02/18 04:16:29;;;;;;;111.63;74.07;;;;;;;;;;6262575;28;24407;-82
2024/02/18 04:19:31;;;;;;;107.28;73.38;;;;;;;;;;6265961;28;24492;-82
2024/02/18 04:22:32;;;;;;;106.72;73.55;;;;;;;;;;6261490;28;24404;-83
2024/02/18 04:25:34;;;;;;;112.03;74.35;;;;;;;;;;6265701;28;24418;-81
2024/02/18 04:28:36;;;;;;;108.07;72.72;;;;;;;;;;6266531;28;24435;-81
2024/02/18 04:31:41;;;;;;;110.72;73.28;;;;;;;;;;6263665;28;24485;-81
2024/02/18 04:34:42;;;;;;;109.80;72.20;;;;;;;;;;6265406;28;24407;-83
2024/02/18 04:37:44;;;;;;;110.82;74.28;;;;;;;;;;6259623;28;24427;-82
2024/02/18 04:40:45;;;;;;;108.88;72.85;;;;;;;;;;6265843;28;24415;-81
2024/02/18 04:43:47;;;;;;;109.93;73.55;;;;;;;;;;6266588;28;24795;-83
2024/02/18 04:46:50;;;;;;;108.97;72.53;;;;;;;;;;6263808;28;24420;-82
2024/02/18 04:49:51;;;;;;;106.10;73.45;;;;;;;;;;6265392;28;24612;-83
2024/02/18 04:52:53;;;;;;;110.80;72.88;;;;;;;;;;6264617;28;24416;-80
2024/02/18 04:55:54;;;;;;;107.72;74.45;;;;;;;;;;6264781;28;24607;-81
2024/02/18 04:58:55;;;;;;;107.95;71.93;;;;;;;;;;6263548;28;24795;-81
2024/02/18 05:01:58;;;;;;;106.63;70.28;;;;;;;;;;6265138;28;24425;-83
2024/02/18 05:05:00;;;;;;;103.80;70.07;;;;;;;;;;6264147;28;24536;-82
2024/02/18 05:08:01;;;;;;;104.00;68.10;;;;;;;;;;6266019;28;24661;-83
2024/02/18 05:11:03;;;;;;;103.20;70.25;;;;;;;;;;6262207;28;24419;-83
2024/02/18 05:14:04;;;;;;;103.03;68.88;;;;;;;;;;6266619;28;24427;-81
2024/02/18 05:17:07;;;;;;;101.25;67.88;;;;;;;;;;6264317;28;24490;-81
2024/02/18 05:20:09;;;;;;;101.73;69.50;;;;;;;;;;6265061;28;24582;-84
2024/02/18 05:23:11;;;;;;;103.63;70.05;;;;;;;;;;6264679;28;24496;-82
2024/02/18 05:26:13;;;;;;;102.00;68.88;;;;;;;;;;6265419;28;24428;-82
2024/02/18 05:29:14;;;;;;;103.97;69.22;;;;;;;;;;6262030;28;24803;-82
2024/02/18 05:32:18;;;;;;;99.85;68.03;;;;;;;;;;6260949;28;24861;-82
2024/02/18 05:35:19;;;;;;;104.65;69.13;;;;;;;;;;6265561;28;24487;-81
2024/02/18 05:38:21;;;;;;;97.47;66.85;;;;;;;;;;6263270;28;24495;-82
2024/02/18 05:41:22;;;;;;;100.60;67.03;;;;;;;;;;6264476;28;24438;-81
2024/02/18 05:44:24;;;;;;;103.25;67.47;;;;;;;;;;6264038;28;24798;-82
2024/02/18 05:47:27;;;;;;;106.38;69.38;;;;;;;;;;6262149;28;24420;-81
2024/02/18 05:50:28;;;;;;;104.18;69.25;;;;;;;;;;6262705;28;24799;-81
2024/02/18 05:53:30;;;;;;;109.45;69.43;;;;;;;;;;6264614;28;24426;-81
2024/02/18 05:56:31;;;;;;;108.93;69.77;;;;;;;;;;6262670;28;24440;-82
2024/02/18 05:59:32;;;;;;;110.55;71.88;;;;;;;;;;6264520;28;24611;-83
2024/02/18 06:02:35;;;;;;;119.32;76.80;;;;;;;;;;6265216;28;24423;-81
2024/02/18 06:05:37;;;;;;;120.70;75.60;;;;;;;;;;6264122;28;24431;-80
2024/02/18 06:08:38;;;;;;;119.78;77.65;;;;;;;;;;6270405;28;24424;-84
2024/02/18 06:11:40;;;;;;;121.50;78.22;;;;;;;;;;6267402;28;24423;-81
2024/02/18 06:14:41;;;;;;;119.88;77.07;;;;;;;;;;6266916;28;24432;-81
2024/02/18 06:17:44;;;;;;;126.75;81.88;;;;;;;;;;6267670;28;24435;-82
2024/02/18 06:20:46;;;;;;;124.75;79.35;;;;;;;;;;6268500;28;24422;-83
2024/02/18 06:23:47;;;;;;;129.48;80.63;;;;;;;;;;6270057;28;24478;-82
2024/02/18 06:26:48;;;;;;;122.00;76.85;;;;;;;;;;6268517;28;24645;-82
2024/02/18 06:29:50;;;;;;;117.53;76.25;;;;;;;;;;6266945;28;24611;-84
2024/02/18 06:32:54;;;;;;;119.87;76.93;;;;;;;;;;6268950;28;24438;-82
2024/02/18 06:35:55;;;;;;;116.90;76.27;;;;;;;;;;6267389;28;24416;-82
2024/02/18 06:38:56;;;;;;;115.65;76.85;;;;;;;;;;6268108;28;24424;-81
2024/02/18 06:41:58;;;;;;;119.88;76.72;;;;;;;;;;6269083;28;24433;-81
2024/02/18 06:44:59;;;;;;;115.45;75.82;;;;;;;;;;6269878;28;24423;-82
2024/02/18 06:48:02;;;;;;;116.82;74.22;;;;;;;;;;6267937;28;24419;-81
2024/02/18 06:51:04;;;;;;;119.75;78.05;;;;;;;;;;6267639;28;24435;-82
2024/02/18 06:54:05;;;;;;;115.13;76.78;;;;;;;;;;6268435;28;24419;-81
2024/02/18 06:57:06;;;;;;;114.57;75.93;;;;;;;;;;6267708;28;24427;-82
2024/02/18 07:00:09;;;;;;;115.53;75.60;;;;;;;;;;6266692;28;24584;-82
2024/02/18 07:03:12;;;;;;;113.75;74.35;;;;;;;;;;6265958;28;24434;-81
2024/02/18 07:06:13;;;;;;;118.70;75.38;;;;;;;;;;6267752;28;24790;-81
2024/02/18 07:09:15;;;;;;;115.55;75.82;;;;;;;;;;6267081;28;24490;-82
2024/02/18 07:12:16;;;;;;;118.97;76.93;;;;;;;;;;6263873;28;25144;-83
2024/02/18 07:15:18;;;;;;;116.28;76.43;;;;;;;;;;6265190;28;24415;-81
2024/02/18 07:18:21;;;;;;;114.07;75.10;;;;;;;;;;6265884;28;24431;-81
2024/02/18 07:21:23;;;;;;;108.97;73.97;;;;;;;;;;6266116;28;24428;-82
2024/02/18 07:24:24;;;;;;;111.32;76.68;;;;;;;;;;6262619;28;24569;-81
2024/02/18 07:27:25;;;;;;;108.33;73.30;;;;;;;;;;6268366;28;24423;-83
2024/02/18 07:30:27;;;;;;;109.53;74.53;;;;;;;;;;6268554;28;24423;-80
2024/02/18 07:33:30;;;;;;;109.93;72.13;;;;;;;;;;6270365;28;24434;-83
2024/02/18 07:36:31;;;;;;;104.60;72.03;;;;;;;;;;6266091;28;24442;-84
2024/02/18 07:39:33;;;;;;;102.22;70.95;;;;;;;;;;6264477;28;24809;-83
2024/02/18 07:42:34;;;;;;;102.03;70.00;;;;;;;;;;6265527;28;24462;-81
2024/02/18 07:45:36;;;;;;;103.20;71.57;;;;;;;;;;6263470;28;24609;-82
2024/02/18 07:48:39;;;;;;;99.57;68.15;;;;;;;;;;6267557;28;24415;-84
2024/02/18 07:51:40;;;;;;;95.60;65.90;;;;;;;;;;6264739;28;24427;-85
2024/02/18 07:54:45;;;;;;;93.53;64.18;;;;;;;;;;6265591;28;24470;-85
2024/02/18 07:57:46;;;;;;;91.35;63.78;;;;;;;;;;6269492;28;24439;-83
2024/02/18 08:00:48;;;;;;;87.78;63.50;;;;;;;;;;6266880;28;24811;-85
2024/02/18 08:03:51;;;;;;;90.60;62.63;;;;;;;;;;6264369;28;24549;-84
2024/02/18 08:06:52;;;;;;;87.07;61.78;;;;;;;;;;6265084;28;24925;-85
2024/02/18 08:09:54;;;;;;;85.03;59.70;;;;;;;;;;6266555;28;24827;-82
2024/02/18 08:12:55;;;;;;;85.05;60.08;;;;;;;;;;6262157;28;24634;-84
2024/02/18 08:15:58;;;;;;;87.10;58.90;;;;;;;;;;6265469;28;24419;-84
2024/02/18 08:19:01;;;;;;;81.50;58.67;;;;;;;;;;6266079;28;24458;-81
2024/02/18 08:22:03;;;;;;;81.88;58.53;;;;;;;;;;6264862;28;24503;-81
2024/02/18 08:25:05;;;;;;;80.13;57.17;;;;;;;;;;6264597;28;24515;-84
2024/02/18 08:28:07;;;;;;;80.55;56.70;;;;;;;;;;6267864;28;24431;-83
2024/02/18 08:31:08;;;;;;;75.60;55.07;;;;;;;;;;6265261;28;24420;-81
2024/02/18 08:34:11;;;;;;;75.35;54.30;;;;;;;;;;6265730;28;25075;-82
2024/02/18 08:37:13;;;;;;;75.93;54.60;;;;;;;;;;6266375;28;24615;-83
2024/02/18 08:40:14;;;;;;;78.87;57.43;;;;;;;;;;6265915;28;24973;-83
2024/02/18 08:43:16;;;;;;;78.57;56.28;;;;;;;;;;6264073;28;24501;-85
2024/02/18 08:46:17;;;;;;;79.60;58.38;;;;;;;;;;6264689;28;24795;-83
2024/02/18 08:49:20;;;;;;;78.00;56.83;;;;;;;;;;6266558;28;24435;-84
2024/02/18 08:52:22;;;;;;;84.55;59.55;;;;;;;;;;6267248;28;24423;-85
2024/02/18 08:55:23;;;;;;;79.43;58.60;;;;;;;;;;6262921;28;24424;-84
2024/02/18 08:58:25;;;;;;;79.60;58.47;;;;;;;;;;6267544;28;24540;-83
2024/02/18 09:01:26;;;;;;;79.47;59.43;;;;;;;;;;6265530;28;24435;-84
2024/02/18 09:04:29;;;;;;;83.25;59.38;;;;;;;;;;6262501;28;24471;-83
2024/02/18 09:07:31;;;;;;;80.65;57.90;;;;;;;;;;6267211;28;24419;-80
2024/02/18 09:10:33;;;;;;;81.53;59.58;;;;;;;;;;6264380;28;24422;-82
2024/02/18 09:13:34;;;;;;;82.78;59.17;;;;;;;;;;6265009;28;24426;-83
2024/02/18 09:16:36;;;;;;;83.65;59.90;;;;;;;;;;6265239;28;24412;-85
2024/02/18 09:19:39;;;;;;;80.65;58.97;;;;;;;;;;6265400;28;24431;-84
2024/02/18 09:22:40;;;;;;;80.25;59.25;;;;;;;;;;6266526;28;24420;-83
2024/02/18 09:25:42;;;;;;;78.75;57.97;;;;;;;;;;6263315;28;24400;-83
2024/02/18 09:28:43;;;;;;;84.35;61.80;;;;;;;;;;6263801;28;24422;-82
2024/02/18 09:31:47;;;;;;;81.55;60.25;;;;;;;;;;6261656;28;24869;-84
2024/02/18 09:34:49;;;;;;;81.35;58.70;;;;;;;;;;6264688;28;24884;-83
2024/02/18 09:37:51;;;;;;;74.97;57.42;;;;;;;;;;6264791;28;24439;-84
2024/02/18 09:40:54;;;;;;;76.57;55.70;;;;;;;;;;6263154;28;24507;-84
2024/02/18 09:44:00;;;;;;;74.70;55.17;;;;;;;;;;6267911;28;24416;-83
2024/02/18 09:47:03;;;;;;;75.03;55.67;;;;;;;;;;6272433;28;24620;-83
2024/02/18 09:50:09;;;;;;;74.05;55.20;;;;;;;;;;6270927;28;24412;-84
2024/02/18 09:53:12;;;;;;;75.03;58.25;;;;;;;;;;6270149;28;24667;-81
2024/02/18 09:56:13;;;;;;;75.45;57.47;;;;;;;;;;6270536;28;24416;-82
2024/02/18 09:59:15;;;;;;;71.85;56.30;;;;;;;;;;6267289;28;24791;-82
2024/02/18 10:02:17;;;;;;;72.03;55.45;;;;;;;;;;6272790;28;24807;-84
2024/02/18 10:05:20;;;;;;;76.85;59.58;;;;;;;;;;6267343;28;24434;-82
2024/02/18 10:08:24;;;;;;;76.10;59.00;;;;;;;;;;6265439;28;24427;-84
2024/02/18 10:11:25;;;;;;;76.25;59.28;;;;;;;;;;6266502;28;24424;-84
2024/02/18 10:14:27;;;;;;;76.95;59.35;;;;;;;;;;6269858;28;24431;-85
2024/02/18 10:17:29;;;;;;;74.90;57.10;;;;;;;;;;6270066;28;24418;-84
2024/02/18 10:20:31;;;;;;;78.93;59.85;;;;;;;;;;6268608;28;24530;-84
2024/02/18 10:23:33;;;;;;;76.68;59.72;;;;;;;;;;6269946;28;24450;-84
2024/02/18 10:26:34;;;;;;;75.75;59.47;;;;;;;;;;6271200;28;24436;-84
2024/02/18 10:29:36;;;;;;;76.67;59.53;;;;;;;;;;6271171;28;24610;-83
2024/02/18 10:32:38;;;;;;;74.97;58.35;;;;;;;;;;6267348;28;24502;-84
2024/02/18 10:35:43;;;;;;;83.03;62.10;;;;;;;;;;6266662;28;24430;-80
2024/02/18 10:38:45;;;;;;;78.63;60.70;;;;;;;;;;6269688;28;24838;-81
2024/02/18 10:41:49;;;;;;;80.20;61.03;;;;;;;;;;6268707;28;24427;-81
2024/02/18 10:44:51;;;;;;;85.55;65.47;;;;;;;;;;6269192;28;24491;-84
2024/02/18 10:47:53;;;;;;;82.07;63.37;;;;;;;;;;6267875;28;24515;-83
2024/02/18 10:50:57;;;;;;;79.00;61.65;;;;;;;;;;6267061;28;24454;-82
2024/02/18 10:54:04;;;;;;;81.10;62.53;;;;;;;;;;6267579;28;24435;-84
2024/02/18 10:57:06;;;;;;;82.80;63.22;;;;;;;;;;6267664;28;24459;-82
2024/02/18 11:00:10;;;;;;;87.80;66.63;;;;;;;;;;6267232;28;24429;-83
2024/02/18 11:03:13;;;;;;;83.95;64.80;;;;;;;;;;6268049;28;24419;-84
2024/02/18 11:06:17;;;;;;;84.75;65.63;;;;;;;;;;6268632;28;24457;-84
2024/02/18 11:09:20;;;;;;;88.05;65.70;;;;;;;;;;6267181;28;24430;-84
2024/02/18 11:12:22;;;;;;;81.22;63.58;;;;;;;;;;6266775;28;24620;-85
2024/02/18 11:15:24;;;;;;;81.03;61.67;;;;;;;;;;6268014;28;24499;-83
2024/02/18 11:18:25;;;;;;;90.20;68.53;;;;;;;;;;6266743;28;24641;-84
2024/02/18 11:21:30;;;;;;;81.70;62.53;;;;;;;;;;6265900;28;24416;-85
2024/02/18 11:24:32;;;;;;;75.28;57.92;;;;;;;;;;6266863;28;24625;-84
2024/02/18 11:27:34;;;;;;;69.57;53.75;;;;;;;;;;6268158;28;24610;-84
2024/02/18 11:30:36;;;;;;;72.90;55.83;;;;;;;;;;6264344;28;24613;-84
2024/02/18 11:33:37;;;;;;;73.95;58.22;;;;;;;;;;6266590;28;24427;-84
2024/02/18 11:36:43;;;;;;;68.07;54.00;;;;;;;;;;6268023;28;24818;-83
2024/02/18 11:39:44;;;;;;;74.50;58.45;;;;;;;;;;6265226;28;24435;-84
2024/02/18 11:42:46;;;;;;;79.43;61.20;;;;;;;;;;6268019;28;24426;-82
2024/02/18 11:45:49;;;;;;;79.70;61.97;;;;;;;;;;6267078;28;24424;-83
2024/02/18 11:48:50;;;;;;;80.05;62.70;;;;;;;;;;6265329;28;24457;-83
2024/02/18 11:51:53;;;;;;;79.60;62.08;;;;;;;;;;6267801;28;24426;-83
2024/02/18 11:54:55;;;;;;;68.95;55.15;;;;;;;;;;6269861;28;24408;-83
2024/02/18 11:57:57;;;;;;;66.43;52.17;;;;;;;;;;6265266;28;24427;-86
2024/02/18 12:01:01;;;;;;;72.15;55.60;;;;;;;;;;6268132;28;24872;-83
2024/02/18 12:04:04;;;;;;;67.07;52.85;;;;;;;;;;6265907;28;24848;-82
2024/02/18 12:07:07;;;;;;;74.50;59.22;;;;;;;;;;6264982;28;24818;-83
2024/02/18 12:10:09;;;;;;;77.43;59.53;;;;;;;;;;6266305;28;24848;-83
2024/02/18 12:13:10;;;;;;;79.97;61.53;;;;;;;;;;6265298;28;24423;-84
2024/02/18 12:16:12;;;;;;;78.30;61.60;;;;;;;;;;6263852;28;24471;-83
2024/02/18 12:19:13;;;;;;;64.90;50.45;;;;;;;;;;6266218;28;24550;-83
2024/02/18 12:22:22;;;;;;;61.00;48.05;;;;;;;;;;6263456;28;24424;-83
2024/02/18 12:25:24;;;;;;;66.63;53.30;;;;;;;;;;6264230;28;24404;-84
2024/02/18 12:28:26;;;;;;;61.80;48.10;;;;;;;;;;6267428;28;24864;-84
2024/02/18 12:31:28;;;;;;;59.25;47.42;;;;;;;;;;6266980;28;24493;-85
2024/02/18 12:34:30;;;;;;;72.60;57.25;;;;;;;;;;6268163;28;24411;-84
2024/02/18 12:37:33;;;;;;;72.07;58.38;;;;;;;;;;6264075;28;24415;-83
2024/02/18 12:40:35;;;;;;;67.35;52.53;;;;;;;;;;6262227;28;24655;-83
2024/02/18 12:43:36;;;;;;;71.63;57.30;;;;;;;;;;6265977;28;24522;-85
2024/02/18 12:46:38;;;;;;;69.55;53.78;;;;;;;;;;6267931;28;24415;-83
2024/02/18 12:49:39;;;;;;;63.65;51.00;;;;;;;;;;6267987;28;24427;-85
2024/02/18 12:52:43;;;;;;;58.90;46.25;;;;;;;;;;6267911;28;24423;-86
2024/02/18 12:55:45;;;;;;;59.33;46.90;;;;;;;;;;6266670;28;24404;-84
2024/02/18 12:58:46;;;;;;;67.65;52.28;;;;;;;;;;6265658;28;24415;-83
2024/02/18 13:01:48;;;;;;;67.77;53.43;;;;;;;;;;6266412;28;24431;-84
2024/02/18 13:04:51;;;;;;;73.28;56.38;;;;;;;;;;6266878;28;24794;-82
2024/02/18 13:07:56;;;;;;;78.43;60.95;;;;;;;;;;6263573;28;24431;-84
2024/02/18 13:10:58;;;;;;;67.75;52.03;;;;;;;;;;6266583;28;24412;-84
2024/02/18 13:14:01;;;;;;;69.35;52.53;;;;;;;;;;6266290;28;24415;-84
2024/02/18 13:17:03;;;;;;;73.53;54.80;;;;;;;;;;6263384;28;24415;-85
2024/02/18 13:20:05;;;;;;;74.20;56.42;;;;;;;;;;6263178;28;24811;-84
2024/02/18 13:23:07;;;;;;;75.72;58.78;;;;;;;;;;6262242;28;24619;-83
2024/02/18 13:26:09;;;;;;;79.10;59.97;;;;;;;;;;6264169;28;24450;-84
2024/02/18 13:29:11;;;;;;;79.07;59.33;;;;;;;;;;6263488;28;24420;-84
2024/02/18 13:32:12;;;;;;;80.50;60.00;;;;;;;;;;6264245;28;24427;-84
2024/02/18 13:35:14;;;;;;;74.95;56.42;;;;;;;;;;6262914;28;24619;-83
2024/02/18 13:38:16;;;;;;;78.68;57.45;;;;;;;;;;6265574;28;24686;-83
2024/02/18 13:41:18;;;;;;;70.07;54.53;;;;;;;;;;6264745;28;24474;-84
2024/02/18 13:44:19;;;;;;;72.90;53.65;;;;;;;;;;6266336;28;24424;-84
2024/02/18 13:47:21;;;;;;;67.68;51.45;;;;;;;;;;6264033;28;24619;-82
2024/02/18 13:50:22;;;;;;;78.65;58.20;;;;;;;;;;6263040;28;24623;-82
2024/02/18 13:53:25;;;;;;;79.00;59.13;;;;;;;;;;6263404;28;24447;-83
2024/02/18 13:56:27;;;;;;;70.28;53.40;;;;;;;;;;6264028;28;24652;-82
2024/02/18 13:59:28;;;;;;;75.95;57.58;;;;;;;;;;6265667;28;24423;-83
2024/02/18 14:02:30;;;;;;;77.90;56.67;;;;;;;;;;6264998;28;24491;-83
2024/02/18 14:05:31;;;;;;;75.03;54.50;;;;;;;;;;6264425;28;24424;-84
2024/02/18 14:08:34;;;;;;;75.28;55.45;;;;;;;;;;6262759;28;24438;-85
2024/02/18 14:11:36;;;;;;;83.88;60.38;;;;;;;;;;6261339;28;24431;-83
2024/02/18 14:14:37;;;;;;;76.47;55.22;;;;;;;;;;6262669;28;24425;-84
2024/02/18 14:17:40;;;;;;;75.15;53.10;;;;;;;;;;6265798;28;24434;-82
2024/02/18 14:20:43;;;;;;;69.43;49.55;;;;;;;;;;6263976;28;24427;-82
2024/02/18 14:23:46;;;;;;;73.77;52.77;;;;;;;;;;6262744;28;24485;-84
2024/02/18 14:26:47;;;;;;;77.30;55.08;;;;;;;;;;6261735;28;24604;-82
2024/02/18 14:29:50;;;;;;;75.35;53.70;;;;;;;;;;6266591;28;24419;-82
2024/02/18 14:32:51;;;;;;;75.32;53.83;;;;;;;;;;6264973;28;24811;-81
2024/02/18 14:35:53;;;;;;;79.40;55.60;;;;;;;;;;6268248;28;24469;-83
2024/02/18 14:38:55;;;;;;;84.13;58.30;;;;;;;;;;6266267;28;24873;-83
2024/02/18 14:41:57;;;;;;;88.25;62.03;;;;;;;;;;6267708;28;24415;-83
2024/02/18 14:45:00;;;;;;;84.15;60.00;;;;;;;;;;6266721;28;24461;-84
2024/02/18 14:48:04;;;;;;;79.10;55.70;;;;;;;;;;6267885;28;24423;-83
2024/02/18 14:51:08;;;;;;;88.03;58.80;;;;;;;;;;6267354;28;24837;-82
2024/02/18 14:54:10;;;;;;;91.00;63.42;;;;;;;;;;6267807;28;24435;-82
2024/02/18 14:57:12;;;;;;;87.13;60.78;;;;;;;;;;6266702;28;24643;-84
2024/02/18 15:00:17;;;;;;;82.50;58.17;;;;;;;;;;6266533;28;24446;-82
2024/02/18 15:03:18;;;;;;;93.88;64.68;;;;;;;;;;6266650;28;24432;-83
2024/02/18 15:06:20;;;;;;;97.40;67.40;;;;;;;;;;6267687;28;25171;-82
2024/02/18 15:09:23;;;;;;;90.38;62.50;;;;;;;;;;6268189;28;24616;-83
2024/02/18 15:12:24;;;;;;;89.65;62.30;;;;;;;;;;6266386;28;24430;-84
2024/02/18 15:15:26;;;;;;;92.18;63.75;;;;;;;;;;6268200;28;24423;-82
2024/02/18 15:18:28;;;;;;;88.90;61.38;;;;;;;;;;6266683;28;24428;-81
2024/02/18 15:21:29;;;;;;;94.18;65.40;;;;;;;;;;6266929;28;24431;-83
2024/02/18 15:24:33;;;;;;;100.80;70.47;;;;;;;;;;6265228;28;24431;-82
2024/02/18 15:27:34;;;;;;;94.72;66.40;;;;;;;;;;6268037;28;24422;-82
2024/02/18 15:30:36;;;;;;;98.55;68.82;;;;;;;;;;6264811;28;24420;-82
2024/02/18 15:33:38;;;;;;;101.25;69.25;;;;;;;;;;6264730;28;24419;-84
2024/02/18 15:36:40;;;;;;;97.45;70.00;;;;;;;;;;6266673;28;24819;-82
2024/02/18 15:39:42;;;;;;;104.03;72.35;;;;;;;;;;6265106;28;24469;-81
2024/02/18 15:42:44;;;;;;;104.63;74.18;;;;;;;;;;6265295;28;24424;-81
2024/02/18 15:45:45;;;;;;;97.63;68.38;;;;;;;;;;6265321;28;24424;-83
2024/02/18 15:48:47;;;;;;;98.55;69.22;;;;;;;;;;6265881;28;24663;-81
2024/02/18 15:51:48;;;;;;;95.00;65.50;;;;;;;;;;6265604;28;24511;-83
2024/02/18 15:54:51;;;;;;;94.63;67.78;;;;;;;;;;6265572;28;24520;-82
2024/02/18 15:57:54;;;;;;;100.45;69.35;;;;;;;;;;6268927;28;24702;-82
2024/02/18 16:00:55;;;;;;;100.88;69.20;;;;;;;;;;6263995;28;24438;-82
2024/02/18 16:03:57;;;;;;;102.00;69.35;;;;;;;;;;6269700;28;24503;-82
2024/02/18 16:06:58;;;;;;;103.55;70.72;;;;;;;;;;6265107;28;24446;-82
2024/02/18 16:10:01;;;;;;;101.78;69.85;;;;;;;;;;6265037;28;24430;-83
2024/02/18 16:13:02;;;;;;;97.60;68.57;;;;;;;;;;6267143;28;24806;-82
2024/02/18 16:16:04;;;;;;;110.38;75.72;;;;;;;;;;6266638;28;24430;-84
2024/02/18 16:19:06;;;;;;;110.72;76.78;;;;;;;;;;6266341;28;24502;-82
2024/02/18 16:22:07;;;;;;;109.65;77.25;;;;;;;;;;6264858;28;24454;-83
2024/02/18 16:25:10;;;;;;;113.03;77.17;;;;;;;;;;6267050;28;24670;-82
2024/02/18 16:28:11;;;;;;;114.78;79.57;;;;;;;;;;6264692;28;24430;-82
2024/02/18 16:31:13;;;;;;;112.13;77.35;;;;;;;;;;6262899;28;24783;-81
2024/02/18 16:34:14;;;;;;;115.28;78.95;;;;;;;;;;6266953;28;24439;-83
2024/02/18 16:37:16;;;;;;;115.57;82.10;;;;;;;;;;6262478;28;24818;-82
2024/02/18 16:40:19;;;;;;;115.85;80.75;;;;;;;;;;6266215;28;24447;-83
2024/02/18 16:43:20;;;;;;;116.45;81.22;;;;;;;;;;6267145;28;24569;-82
2024/02/18 16:46:22;;;;;;;118.73;82.80;;;;;;;;;;6263177;28;24443;-82
2024/02/18 16:49:23;;;;;;;115.55;80.97;;;;;;;;;;6266753;28;24476;-84
2024/02/18 16:52:25;;;;;;;115.70;82.65;;;;;;;;;;6264965;28;24439;-82
2024/02/18 16:55:27;;;;;;;114.53;82.85;;;;;;;;;;6267325;28;24426;-82
2024/02/18 16:58:29;;;;;;;121.20;83.72;;;;;;;;;;6263070;28;24415;-82
2024/02/18 17:01:30;;;;;;;120.60;84.85;;;;;;;;;;6262702;28;24514;-82
2024/02/18 17:04:32;;;;;;;123.03;83.50;;;;;;;;;;6265430;28;24408;-82
2024/02/18 17:07:33;;;;;;;121.93;84.45;;;;;;;;;;6263574;28;24415;-82
2024/02/18 17:10:36;;;;;;;121.95;83.43;;;;;;;;;;6265893;28;24691;-82
2024/02/18 17:13:38;;;;;;;125.38;85.53;;;;;;;;;;6265113;28;24419;-82
2024/02/18 17:16:39;;;;;;;128.05;90.20;;;;;;;;;;6265513;28;24420;-81
2024/02/18 17:19:41;;;;;;;128.80;89.68;;;;;;;;;;6265772;28;24809;-82
2024/02/18 17:22:42;;;;;;;128.20;88.20;;;;;;;;;;6264695;28;24408;-84
2024/02/18 17:25:45;;;;;;;124.75;85.78;;;;;;;;;;6266793;28;24522;-83
2024/02/18 17:28:46;;;;;;;123.38;86.60;;;;;;;;;;6267721;28;24438;-83
2024/02/18 17:31:49;;;;;;;124.05;87.60;;;;;;;;;;6267030;28;24811;-81